sensor_id;sensor_type;location;lat;lon;timestamp;temperature;humidity
25933;DHT22;13731;51.166;4.474;2023-07-20T00:00:29;17.70;99.90
25933;DHT22;13731;51.166;4.474;2023-07-20T00:03:09;17.80;99.90
25933;DHT22;13731;51.166;4.474;2023-07-20T00:05:35;18.00;1.00
25933;DHT22;13731;51.166;4.474;2023-07-20T00:08:00;18.20;99.90
25933;DHT22;13731;51.166;4.474;2023-07-20T00:10:26;18.30;4.90
25933;DHT22;13731;51.166;4.474;2023-07-20T00:12:52;18.10;99.90
25933;DHT22;13731;51.166;4.474;2023-07-20T00:15:18;18.00;56.90
25933;DHT22;13731;51.166;4.474;2023-07-20T00:17:43;18.00;1.00
25933;DHT22;13731;51.166;4.474;2023-07-20T00:20:10;18.10;1.00
25933;DHT22;13731;51.166;4.474;2023-07-20T00:22:36;18.10;1.00
25933;DHT22;13731;51.166;4.474;2023-07-20T00:25:02;18.10;52.20
25933;DHT22;13731;51.166;4.474;2023-07-20T00:27:28;18.10;99.90
25933;DHT22;13731;51.166;4.474;2023-07-20T00:29:53;18.10;99.50
25933;DHT22;13731;51.166;4.474;2023-07-20T00:32:19;17.90;1.00
25933;DHT22;13731;51.166;4.474;2023-07-20T00:34:45;17.80;99.90
25933;DHT22;13731;51.166;4.474;2023-07-20T00:37:11;17.60;99.90
25933;DHT22;13731;51.166;4.474;2023-07-20T00:39:37;17.50;1.00
25933;DHT22;13731;51.166;4.474;2023-07-20T00:42:03;17.40;64.20
25933;DHT22;13731;51.166;4.474;2023-07-20T00:44:29;17.60;99.90
25933;DHT22;13731;51.166;4.474;2023-07-20T00:46:54;17.60;1.00
25933;DHT22;13731;51.166;4.474;2023-07-20T00:49:20;17.50;99.90
25933;DHT22;13731;51.166;4.474;2023-07-20T00:51:47;17.70;99.90
25933;DHT22;13731;51.166;4.474;2023-07-20T00:54:15;17.60;99.90
25933;DHT22;13731;51.166;4.474;2023-07-20T00:56:42;17.40;99.90
25933;DHT22;13731;51.166;4.474;2023-07-20T00:59:09;17.50;99.90
25933;DHT22;13731;51.166;4.474;2023-07-20T01:01:35;17.50;99.90
25933;DHT22;13731;51.166;4.474;2023-07-20T01:04:00;17.40;99.90
25933;DHT22;13731;51.166;4.474;2023-07-20T01:13:55;17.20;1.00
25933;DHT22;13731;51.166;4.474;2023-07-20T01:16:21;17.10;1.00
25933;DHT22;13731;51.166;4.474;2023-07-20T01:18:47;16.90;1.00
25933;DHT22;13731;51.166;4.474;2023-07-20T01:21:13;16.90;1.00
25933;DHT22;13731;51.166;4.474;2023-07-20T01:29:06;17.20;99.90
25933;DHT22;13731;51.166;4.474;2023-07-20T01:31:33;17.30;99.90
25933;DHT22;13731;51.166;4.474;2023-07-20T01:34:00;17.10;99.90
25933;DHT22;13731;51.166;4.474;2023-07-20T01:36:28;17.00;1.00
25933;DHT22;13731;51.166;4.474;2023-07-20T01:38:54;17.10;1.00
25933;DHT22;13731;51.166;4.474;2023-07-20T01:41:21;17.10;1.00
25933;DHT22;13731;51.166;4.474;2023-07-20T01:43:47;17.00;1.00
25933;DHT22;13731;51.166;4.474;2023-07-20T01:46:13;17.10;1.00
25933;DHT22;13731;51.166;4.474;2023-07-20T01:48:38;17.10;1.00
25933;DHT22;13731;51.166;4.474;2023-07-20T01:51:04;16.80;1.00
25933;DHT22;13731;51.166;4.474;2023-07-20T01:53:33;16.70;99.90
25933;DHT22;13731;51.166;4.474;2023-07-20T01:55:58;16.70;99.90
25933;DHT22;13731;51.166;4.474;2023-07-20T01:58:24;16.50;1.00
25933;DHT22;13731;51.166;4.474;2023-07-20T02:00:50;16.70;99.90
25933;DHT22;13731;51.166;4.474;2023-07-20T02:03:16;16.60;99.90
25933;DHT22;13731;51.166;4.474;2023-07-20T02:05:42;16.50;99.90
25933;DHT22;13731;51.166;4.474;2023-07-20T02:08:09;16.50;1.00
25933;DHT22;13731;51.166;4.474;2023-07-20T02:10:37;16.40;99.90
25933;DHT22;13731;51.166;4.474;2023-07-20T02:13:03;16.40;1.00
25933;DHT22;13731;51.166;4.474;2023-07-20T02:15:29;16.40;1.00
25933;DHT22;13731;51.166;4.474;2023-07-20T02:17:54;16.50;1.00
25933;DHT22;13731;51.166;4.474;2023-07-20T02:20:20;16.60;1.00
25933;DHT22;13731;51.166;4.474;2023-07-20T02:22:46;16.90;99.90
25933;DHT22;13731;51.166;4.474;2023-07-20T02:25:12;16.90;99.90
25933;DHT22;13731;51.166;4.474;2023-07-20T02:27:38;16.80;99.90
25933;DHT22;13731;51.166;4.474;2023-07-20T02:30:04;17.00;99.90
25933;DHT22;13731;51.166;4.474;2023-07-20T02:32:30;16.90;99.90
25933;DHT22;13731;51.166;4.474;2023-07-20T02:34:57;16.80;99.90
25933;DHT22;13731;51.166;4.474;2023-07-20T02:37:23;16.60;99.90
25933;DHT22;13731;51.166;4.474;2023-07-20T02:39:49;16.70;1.00
25933;DHT22;13731;51.166;4.474;2023-07-20T02:42:15;16.70;1.00
25933;DHT22;13731;51.166;4.474;2023-07-20T02:44:41;16.90;99.90
25933;DHT22;13731;51.166;4.474;2023-07-20T02:47:06;16.90;99.90
25933;DHT22;13731;51.166;4.474;2023-07-20T02:49:33;16.80;99.90
25933;DHT22;13731;51.166;4.474;2023-07-20T02:51:59;17.00;99.90
25933;DHT22;13731;51.166;4.474;2023-07-20T02:54:25;17.10;99.90
25933;DHT22;13731;51.166;4.474;2023-07-20T02:56:51;16.90;99.90
25933;DHT22;13731;51.166;4.474;2023-07-20T02:59:17;16.90;99.90
25933;DHT22;13731;51.166;4.474;2023-07-20T03:01:42;16.80;99.90
25933;DHT22;13731;51.166;4.474;2023-07-20T03:04:08;17.00;99.90
25933;DHT22;13731;51.166;4.474;2023-07-20T03:06:36;17.00;99.90
25933;DHT22;13731;51.166;4.474;2023-07-20T03:09:02;16.80;99.90
25933;DHT22;13731;51.166;4.474;2023-07-20T03:11:29;16.80;99.90
25933;DHT22;13731;51.166;4.474;2023-07-20T03:13:56;16.70;99.90
25933;DHT22;13731;51.166;4.474;2023-07-20T03:16:23;16.70;99.90
25933;DHT22;13731;51.166;4.474;2023-07-20T03:18:49;16.70;1.00
25933;DHT22;13731;51.166;4.474;2023-07-20T03:21:15;16.80;99.90
25933;DHT22;13731;51.166;4.474;2023-07-20T03:23:41;17.00;99.90
25933;DHT22;13731;51.166;4.474;2023-07-20T03:26:07;16.80;99.90
25933;DHT22;13731;51.166;4.474;2023-07-20T03:28:36;16.80;99.90
25933;DHT22;13731;51.166;4.474;2023-07-20T03:31:03;16.60;1.00
25933;DHT22;13731;51.166;4.474;2023-07-20T03:33:32;16.60;1.00
25933;DHT22;13731;51.166;4.474;2023-07-20T03:35:58;16.60;1.00
25933;DHT22;13731;51.166;4.474;2023-07-20T03:38:24;16.60;1.00
25933;DHT22;13731;51.166;4.474;2023-07-20T03:40:51;16.70;1.00
25933;DHT22;13731;51.166;4.474;2023-07-20T03:43:17;16.70;1.00
25933;DHT22;13731;51.166;4.474;2023-07-20T03:45:43;16.70;1.00
25933;DHT22;13731;51.166;4.474;2023-07-20T03:48:09;16.70;99.90
25933;DHT22;13731;51.166;4.474;2023-07-20T03:50:35;16.80;99.90
25933;DHT22;13731;51.166;4.474;2023-07-20T03:53:01;16.90;99.90
25933;DHT22;13731;51.166;4.474;2023-07-20T03:55:27;17.10;99.90
25933;DHT22;13731;51.166;4.474;2023-07-20T03:57:53;17.20;99.90
25933;DHT22;13731;51.166;4.474;2023-07-20T04:00:19;17.20;99.90
25933;DHT22;13731;51.166;4.474;2023-07-20T04:02:45;17.00;99.90
25933;DHT22;13731;51.166;4.474;2023-07-20T04:05:10;16.80;99.90
25933;DHT22;13731;51.166;4.474;2023-07-20T04:07:36;16.80;99.90
25933;DHT22;13731;51.166;4.474;2023-07-20T04:10:02;16.90;99.90
25933;DHT22;13731;51.166;4.474;2023-07-20T04:12:28;17.10;99.90
25933;DHT22;13731;51.166;4.474;2023-07-20T04:14:53;17.20;99.90
25933;DHT22;13731;51.166;4.474;2023-07-20T04:17:19;17.20;92.70
25933;DHT22;13731;51.166;4.474;2023-07-20T04:19:45;17.10;91.40
25933;DHT22;13731;51.166;4.474;2023-07-20T04:22:11;17.20;99.90
25933;DHT22;13731;51.166;4.474;2023-07-20T04:24:36;17.30;21.40
25933;DHT22;13731;51.166;4.474;2023-07-20T04:27:02;17.30;1.00
25933;DHT22;13731;51.166;4.474;2023-07-20T04:29:28;17.30;1.00
25933;DHT22;13731;51.166;4.474;2023-07-20T04:31:54;17.40;1.00
25933;DHT22;13731;51.166;4.474;2023-07-20T04:34:20;17.50;1.00
25933;DHT22;13731;51.166;4.474;2023-07-20T04:36:46;17.50;1.00
25933;DHT22;13731;51.166;4.474;2023-07-20T04:39:12;17.60;99.90
25933;DHT22;13731;51.166;4.474;2023-07-20T04:41:41;17.60;99.90
25933;DHT22;13731;51.166;4.474;2023-07-20T04:44:07;17.50;99.90
25933;DHT22;13731;51.166;4.474;2023-07-20T04:46:33;17.40;99.90
25933;DHT22;13731;51.166;4.474;2023-07-20T04:49:01;17.40;99.90
25933;DHT22;13731;51.166;4.474;2023-07-20T04:51:29;17.40;99.90
25933;DHT22;13731;51.166;4.474;2023-07-20T04:53:56;17.40;99.90
25933;DHT22;13731;51.166;4.474;2023-07-20T04:56:24;17.50;99.90
25933;DHT22;13731;51.166;4.474;2023-07-20T04:58:50;17.60;1.00
25933;DHT22;13731;51.166;4.474;2023-07-20T05:01:16;17.50;1.00
25933;DHT22;13731;51.166;4.474;2023-07-20T05:03:43;17.60;1.00
25933;DHT22;13731;51.166;4.474;2023-07-20T05:06:09;17.70;99.90
25933;DHT22;13731;51.166;4.474;2023-07-20T05:08:35;17.80;99.90
25933;DHT22;13731;51.166;4.474;2023-07-20T05:11:00;17.80;99.90
25933;DHT22;13731;51.166;4.474;2023-07-20T05:13:26;17.80;99.90
25933;DHT22;13731;51.166;4.474;2023-07-20T05:15:52;17.80;1.00
25933;DHT22;13731;51.166;4.474;2023-07-20T05:18:19;17.90;1.50
25933;DHT22;13731;51.166;4.474;2023-07-20T05:20:47;17.90;2.20
25933;DHT22;13731;51.166;4.474;2023-07-20T05:23:13;17.90;99.90
25933;DHT22;13731;51.166;4.474;2023-07-20T05:25:40;18.20;1.00
25933;DHT22;13731;51.166;4.474;2023-07-20T05:28:05;18.10;99.90
25933;DHT22;13731;51.166;4.474;2023-07-20T05:30:31;18.20;1.00
25933;DHT22;13731;51.166;4.474;2023-07-20T05:32:57;18.20;98.40
25933;DHT22;13731;51.166;4.474;2023-07-20T05:35:23;18.40;1.00
25933;DHT22;13731;51.166;4.474;2023-07-20T05:37:49;18.60;99.90
25933;DHT22;13731;51.166;4.474;2023-07-20T05:40:15;18.60;99.90
25933;DHT22;13731;51.166;4.474;2023-07-20T05:42:44;18.70;99.90
25933;DHT22;13731;51.166;4.474;2023-07-20T05:45:12;18.50;99.90
25933;DHT22;13731;51.166;4.474;2023-07-20T05:47:38;18.80;99.90
25933;DHT22;13731;51.166;4.474;2023-07-20T05:50:03;18.70;99.90
25933;DHT22;13731;51.166;4.474;2023-07-20T05:52:29;18.90;99.90
25933;DHT22;13731;51.166;4.474;2023-07-20T05:54:55;18.90;84.10
25933;DHT22;13731;51.166;4.474;2023-07-20T05:57:21;18.90;99.90
25933;DHT22;13731;51.166;4.474;2023-07-20T05:59:46;19.00;1.00
25933;DHT22;13731;51.166;4.474;2023-07-20T06:02:12;19.00;99.90
25933;DHT22;13731;51.166;4.474;2023-07-20T06:04:38;18.80;1.00
25933;DHT22;13731;51.166;4.474;2023-07-20T06:07:04;18.60;75.90
25933;DHT22;13731;51.166;4.474;2023-07-20T06:09:30;18.60;1.00
25933;DHT22;13731;51.166;4.474;2023-07-20T06:11:56;18.90;1.00
25933;DHT22;13731;51.166;4.474;2023-07-20T06:14:22;18.90;25.50
25933;DHT22;13731;51.166;4.474;2023-07-20T06:16:47;19.20;1.00
25933;DHT22;13731;51.166;4.474;2023-07-20T06:19:13;19.30;1.00
25933;DHT22;13731;51.166;4.474;2023-07-20T06:21:39;19.30;25.10
25933;DHT22;13731;51.166;4.474;2023-07-20T06:24:05;19.30;99.90
25933;DHT22;13731;51.166;4.474;2023-07-20T06:26:31;19.40;99.90
25933;DHT22;13731;51.166;4.474;2023-07-20T06:28:57;19.70;34.60
25933;DHT22;13731;51.166;4.474;2023-07-20T06:31:23;19.60;99.90
25933;DHT22;13731;51.166;4.474;2023-07-20T06:33:49;19.50;99.90
25933;DHT22;13731;51.166;4.474;2023-07-20T06:36:17;19.70;97.10
25933;DHT22;13731;51.166;4.474;2023-07-20T06:38:43;19.90;99.90
25933;DHT22;13731;51.166;4.474;2023-07-20T06:41:09;20.10;1.00
25933;DHT22;13731;51.166;4.474;2023-07-20T06:43:34;20.20;99.90
25933;DHT22;13731;51.166;4.474;2023-07-20T06:46:00;20.10;57.70
25933;DHT22;13731;51.166;4.474;2023-07-20T06:48:26;20.20;55.90
25933;DHT22;13731;51.166;4.474;2023-07-20T06:50:52;20.10;99.90
25933;DHT22;13731;51.166;4.474;2023-07-20T06:53:18;20.00;99.90
25933;DHT22;13731;51.166;4.474;2023-07-20T06:55:43;19.80;99.90
25933;DHT22;13731;51.166;4.474;2023-07-20T06:58:10;19.60;99.90
25933;DHT22;13731;51.166;4.474;2023-07-20T07:00:36;20.10;99.90
25933;DHT22;13731;51.166;4.474;2023-07-20T07:03:01;20.70;1.00
25933;DHT22;13731;51.166;4.474;2023-07-20T07:05:28;21.10;1.00
25933;DHT22;13731;51.166;4.474;2023-07-20T07:07:54;20.80;1.00
25933;DHT22;13731;51.166;4.474;2023-07-20T07:10:19;20.70;1.00
25933;DHT22;13731;51.166;4.474;2023-07-20T07:12:45;21.20;1.00
25933;DHT22;13731;51.166;4.474;2023-07-20T07:15:11;21.30;1.00
25933;DHT22;13731;51.166;4.474;2023-07-20T07:17:37;21.40;1.00
25933;DHT22;13731;51.166;4.474;2023-07-20T07:20:04;20.80;1.00
25933;DHT22;13731;51.166;4.474;2023-07-20T07:22:30;20.70;1.00
25933;DHT22;13731;51.166;4.474;2023-07-20T07:24:56;20.50;1.00
25933;DHT22;13731;51.166;4.474;2023-07-20T07:27:21;20.80;1.00
25933;DHT22;13731;51.166;4.474;2023-07-20T07:29:47;20.90;1.00
25933;DHT22;13731;51.166;4.474;2023-07-20T07:32:13;20.90;1.00
25933;DHT22;13731;51.166;4.474;2023-07-20T07:34:39;21.50;99.90
25933;DHT22;13731;51.166;4.474;2023-07-20T07:37:05;22.00;99.90
25933;DHT22;13731;51.166;4.474;2023-07-20T07:39:30;21.70;99.90
25933;DHT22;13731;51.166;4.474;2023-07-20T07:41:56;21.90;99.90
25933;DHT22;13731;51.166;4.474;2023-07-20T07:44:22;21.60;99.90
25933;DHT22;13731;51.166;4.474;2023-07-20T07:46:48;21.40;99.90
25933;DHT22;13731;51.166;4.474;2023-07-20T07:49:14;21.60;99.90
25933;DHT22;13731;51.166;4.474;2023-07-20T07:51:40;21.60;99.90
25933;DHT22;13731;51.166;4.474;2023-07-20T07:54:06;21.40;99.90
25933;DHT22;13731;51.166;4.474;2023-07-20T07:56:31;21.10;99.90
25933;DHT22;13731;51.166;4.474;2023-07-20T07:58:57;20.90;99.90
25933;DHT22;13731;51.166;4.474;2023-07-20T08:01:23;21.20;99.90
25933;DHT22;13731;51.166;4.474;2023-07-20T08:03:49;21.90;99.90
25933;DHT22;13731;51.166;4.474;2023-07-20T08:06:14;21.90;99.90
25933;DHT22;13731;51.166;4.474;2023-07-20T08:08:40;22.00;99.90
25933;DHT22;13731;51.166;4.474;2023-07-20T08:11:06;21.70;99.90
25933;DHT22;13731;51.166;4.474;2023-07-20T08:13:32;21.90;99.90
25933;DHT22;13731;51.166;4.474;2023-07-20T08:15:58;21.20;99.90
25933;DHT22;13731;51.166;4.474;2023-07-20T08:18:24;21.50;99.90
25933;DHT22;13731;51.166;4.474;2023-07-20T08:20:50;21.90;99.90
25933;DHT22;13731;51.166;4.474;2023-07-20T08:23:15;22.30;99.90
25933;DHT22;13731;51.166;4.474;2023-07-20T08:25:41;22.00;99.90
25933;DHT22;13731;51.166;4.474;2023-07-20T08:28:10;21.20;99.90
25933;DHT22;13731;51.166;4.474;2023-07-20T08:30:39;21.30;99.90
25933;DHT22;13731;51.166;4.474;2023-07-20T08:33:05;22.40;99.90
25933;DHT22;13731;51.166;4.474;2023-07-20T08:35:30;23.30;99.90
25933;DHT22;13731;51.166;4.474;2023-07-20T08:37:56;23.90;99.90
25933;DHT22;13731;51.166;4.474;2023-07-20T08:40:22;23.90;90.20
25933;DHT22;13731;51.166;4.474;2023-07-20T08:42:48;24.10;78.40
25933;DHT22;13731;51.166;4.474;2023-07-20T08:45:14;23.80;88.30
25933;DHT22;13731;51.166;4.474;2023-07-20T08:47:42;23.90;59.20
25933;DHT22;13731;51.166;4.474;2023-07-20T08:50:09;23.90;46.90
25933;DHT22;13731;51.166;4.474;2023-07-20T08:52:36;23.50;42.40
25933;DHT22;13731;51.166;4.474;2023-07-20T08:55:02;23.30;44.80
25933;DHT22;13731;51.166;4.474;2023-07-20T08:57:31;22.40;46.60
25933;DHT22;13731;51.166;4.474;2023-07-20T08:59:58;22.90;58.00
25933;DHT22;13731;51.166;4.474;2023-07-20T09:02:24;23.40;52.50
25933;DHT22;13731;51.166;4.474;2023-07-20T09:04:50;23.60;41.40
25933;DHT22;13731;51.166;4.474;2023-07-20T09:07:16;23.90;32.10
25933;DHT22;13731;51.166;4.474;2023-07-20T09:09:42;22.90;40.90
25933;DHT22;13731;51.166;4.474;2023-07-20T09:12:14;22.40;51.20
25933;DHT22;13731;51.166;4.474;2023-07-20T09:14:44;22.20;87.40
25933;DHT22;13731;51.166;4.474;2023-07-20T09:17:13;22.90;88.80
25933;DHT22;13731;51.166;4.474;2023-07-20T09:19:45;23.20;62.70
25933;DHT22;13731;51.166;4.474;2023-07-20T09:22:10;23.70;48.50
25933;DHT22;13731;51.166;4.474;2023-07-20T09:24:36;22.90;44.40
25933;DHT22;13731;51.166;4.474;2023-07-20T09:27:02;22.10;62.90
25933;DHT22;13731;51.166;4.474;2023-07-20T09:29:31;22.00;90.90
25933;DHT22;13731;51.166;4.474;2023-07-20T09:32:03;21.50;96.40
25933;DHT22;13731;51.166;4.474;2023-07-20T09:34:32;21.50;99.90
25933;DHT22;13731;51.166;4.474;2023-07-20T09:36:58;21.60;99.90
25933;DHT22;13731;51.166;4.474;2023-07-20T09:39:24;21.60;99.90
25933;DHT22;13731;51.166;4.474;2023-07-20T09:41:50;21.70;99.90
25933;DHT22;13731;51.166;4.474;2023-07-20T09:44:16;21.80;99.90
25933;DHT22;13731;51.166;4.474;2023-07-20T09:46:43;22.00;99.90
25933;DHT22;13731;51.166;4.474;2023-07-20T09:49:09;22.70;99.90
25933;DHT22;13731;51.166;4.474;2023-07-20T09:51:35;23.30;80.80
25933;DHT22;13731;51.166;4.474;2023-07-20T09:54:01;24.00;50.60
25933;DHT22;13731;51.166;4.474;2023-07-20T09:56:29;24.60;32.00
25933;DHT22;13731;51.166;4.474;2023-07-20T09:58:56;24.20;16.10
25933;DHT22;13731;51.166;4.474;2023-07-20T10:01:22;24.70;12.20
25933;DHT22;13731;51.166;4.474;2023-07-20T10:03:48;24.60;6.50
25933;DHT22;13731;51.166;4.474;2023-07-20T10:06:18;24.90;3.30
25933;DHT22;13731;51.166;4.474;2023-07-20T10:08:45;25.10;1.00
25933;DHT22;13731;51.166;4.474;2023-07-20T10:11:14;25.10;1.00
25933;DHT22;13731;51.166;4.474;2023-07-20T10:13:41;25.30;1.00
25933;DHT22;13731;51.166;4.474;2023-07-20T10:16:13;26.30;1.00
25933;DHT22;13731;51.166;4.474;2023-07-20T10:21:15;26.30;1.00
25933;DHT22;13731;51.166;4.474;2023-07-20T10:23:42;25.90;1.00
25933;DHT22;13731;51.166;4.474;2023-07-20T10:26:08;24.90;1.00
25933;DHT22;13731;51.166;4.474;2023-07-20T10:28:35;23.90;1.00
25933;DHT22;13731;51.166;4.474;2023-07-20T10:31:01;25.10;1.00
25933;DHT22;13731;51.166;4.474;2023-07-20T10:33:27;26.30;1.00
25933;DHT22;13731;51.166;4.474;2023-07-20T10:36:03;26.00;1.00
25933;DHT22;13731;51.166;4.474;2023-07-20T10:38:40;26.50;1.00
25933;DHT22;13731;51.166;4.474;2023-07-20T10:43:48;27.30;1.00
25933;DHT22;13731;51.166;4.474;2023-07-20T10:46:14;27.00;1.00
25933;DHT22;13731;51.166;4.474;2023-07-20T10:48:59;27.50;1.00
25933;DHT22;13731;51.166;4.474;2023-07-20T10:51:25;28.90;1.00
25933;DHT22;13731;51.166;4.474;2023-07-20T10:53:51;29.40;1.00
25933;DHT22;13731;51.166;4.474;2023-07-20T10:56:20;28.10;1.00
25933;DHT22;13731;51.166;4.474;2023-07-20T10:58:46;27.80;1.00
25933;DHT22;13731;51.166;4.474;2023-07-20T11:01:17;27.70;1.00
25933;DHT22;13731;51.166;4.474;2023-07-20T11:03:43;27.40;1.00
25933;DHT22;13731;51.166;4.474;2023-07-20T11:09:02;26.90;1.00
25933;DHT22;13731;51.166;4.474;2023-07-20T11:11:29;26.90;1.00
25933;DHT22;13731;51.166;4.474;2023-07-20T11:13:59;25.90;1.00
25933;DHT22;13731;51.166;4.474;2023-07-20T11:16:35;25.90;1.00
25933;DHT22;13731;51.166;4.474;2023-07-20T11:19:02;25.80;1.00
25933;DHT22;13731;51.166;4.474;2023-07-20T11:21:28;25.60;1.00
25933;DHT22;13731;51.166;4.474;2023-07-20T11:23:54;25.60;1.00
25933;DHT22;13731;51.166;4.474;2023-07-20T11:26:20;25.60;1.00
25933;DHT22;13731;51.166;4.474;2023-07-20T11:28:49;25.80;1.00
25933;DHT22;13731;51.166;4.474;2023-07-20T11:31:17;26.30;1.00
25933;DHT22;13731;51.166;4.474;2023-07-20T11:33:43;26.90;1.00
25933;DHT22;13731;51.166;4.474;2023-07-20T11:36:09;27.50;1.00
25933;DHT22;13731;51.166;4.474;2023-07-20T11:38:35;27.30;1.00
25933;DHT22;13731;51.166;4.474;2023-07-20T11:41:02;27.80;1.00
25933;DHT22;13731;51.166;4.474;2023-07-20T11:43:28;27.90;1.00
25933;DHT22;13731;51.166;4.474;2023-07-20T11:45:54;28.30;1.00
25933;DHT22;13731;51.166;4.474;2023-07-20T11:48:19;28.10;1.00
25933;DHT22;13731;51.166;4.474;2023-07-20T11:50:45;28.80;1.00
25933;DHT22;13731;51.166;4.474;2023-07-20T11:53:11;29.00;1.00
25933;DHT22;13731;51.166;4.474;2023-07-20T11:55:37;28.70;1.00
25933;DHT22;13731;51.166;4.474;2023-07-20T12:00:29;29.00;1.00
25933;DHT22;13731;51.166;4.474;2023-07-20T12:02:55;28.30;1.00
25933;DHT22;13731;51.166;4.474;2023-07-20T12:05:23;28.40;1.00
25933;DHT22;13731;51.166;4.474;2023-07-20T12:07:49;29.70;1.00
25933;DHT22;13731;51.166;4.474;2023-07-20T12:10:23;31.40;1.00
25933;DHT22;13731;51.166;4.474;2023-07-20T12:12:49;32.70;1.00
25933;DHT22;13731;51.166;4.474;2023-07-20T12:15:24;32.80;1.00
25933;DHT22;13731;51.166;4.474;2023-07-20T12:17:56;32.20;1.00
25933;DHT22;13731;51.166;4.474;2023-07-20T12:20:25;31.00;1.00
25933;DHT22;13731;51.166;4.474;2023-07-20T12:22:52;30.40;1.00
25933;DHT22;13731;51.166;4.474;2023-07-20T12:25:17;29.80;1.00
25933;DHT22;13731;51.166;4.474;2023-07-20T12:27:47;28.50;1.00
25933;DHT22;13731;51.166;4.474;2023-07-20T12:30:13;27.50;1.00
25933;DHT22;13731;51.166;4.474;2023-07-20T12:32:39;26.90;1.00
25933;DHT22;13731;51.166;4.474;2023-07-20T12:35:05;25.80;1.00
25933;DHT22;13731;51.166;4.474;2023-07-20T12:37:31;25.50;1.00
25933;DHT22;13731;51.166;4.474;2023-07-20T12:39:57;25.30;1.00
25933;DHT22;13731;51.166;4.474;2023-07-20T12:42:23;25.30;1.00
25933;DHT22;13731;51.166;4.474;2023-07-20T12:44:49;25.40;1.00
25933;DHT22;13731;51.166;4.474;2023-07-20T12:47:15;25.50;1.00
25933;DHT22;13731;51.166;4.474;2023-07-20T12:49:41;25.30;1.00
25933;DHT22;13731;51.166;4.474;2023-07-20T12:52:10;25.00;1.00
25933;DHT22;13731;51.166;4.474;2023-07-20T12:54:36;24.60;1.00
25933;DHT22;13731;51.166;4.474;2023-07-20T12:57:02;24.20;1.00
25933;DHT22;13731;51.166;4.474;2023-07-20T12:59:28;24.40;1.00
25933;DHT22;13731;51.166;4.474;2023-07-20T13:01:54;24.10;1.00
25933;DHT22;13731;51.166;4.474;2023-07-20T13:04:20;23.80;1.00
25933;DHT22;13731;51.166;4.474;2023-07-20T13:06:46;23.50;1.00
25933;DHT22;13731;51.166;4.474;2023-07-20T13:09:11;23.40;1.00
25933;DHT22;13731;51.166;4.474;2023-07-20T13:11:37;23.50;1.00
25933;DHT22;13731;51.166;4.474;2023-07-20T13:14:03;23.60;1.00
25933;DHT22;13731;51.166;4.474;2023-07-20T13:16:28;23.60;1.00
25933;DHT22;13731;51.166;4.474;2023-07-20T13:18:54;23.40;1.00
25933;DHT22;13731;51.166;4.474;2023-07-20T13:21:20;23.40;1.00
25933;DHT22;13731;51.166;4.474;2023-07-20T13:23:48;23.00;1.00
25933;DHT22;13731;51.166;4.474;2023-07-20T13:26:14;22.70;1.00
25933;DHT22;13731;51.166;4.474;2023-07-20T13:28:41;22.70;1.00
25933;DHT22;13731;51.166;4.474;2023-07-20T13:31:06;22.80;1.00
25933;DHT22;13731;51.166;4.474;2023-07-20T13:33:34;22.80;1.00
25933;DHT22;13731;51.166;4.474;2023-07-20T13:36:00;22.80;1.00
25933;DHT22;13731;51.166;4.474;2023-07-20T13:38:26;22.80;1.00
25933;DHT22;13731;51.166;4.474;2023-07-20T13:40:52;22.80;1.00
25933;DHT22;13731;51.166;4.474;2023-07-20T13:43:17;23.00;1.00
25933;DHT22;13731;51.166;4.474;2023-07-20T13:45:43;22.80;1.00
25933;DHT22;13731;51.166;4.474;2023-07-20T13:48:09;22.70;1.00
25933;DHT22;13731;51.166;4.474;2023-07-20T13:50:35;22.60;1.00
25933;DHT22;13731;51.166;4.474;2023-07-20T13:53:00;22.60;1.00
25933;DHT22;13731;51.166;4.474;2023-07-20T13:55:28;22.80;1.00
25933;DHT22;13731;51.166;4.474;2023-07-20T13:57:56;22.80;1.00
25933;DHT22;13731;51.166;4.474;2023-07-20T14:00:22;22.80;1.00
25933;DHT22;13731;51.166;4.474;2023-07-20T14:02:47;22.90;1.00
25933;DHT22;13731;51.166;4.474;2023-07-20T14:05:13;23.00;1.00
25933;DHT22;13731;51.166;4.474;2023-07-20T14:07:41;23.20;1.00
25933;DHT22;13731;51.166;4.474;2023-07-20T14:10:08;23.30;1.00
25933;DHT22;13731;51.166;4.474;2023-07-20T14:12:34;23.60;1.00
25933;DHT22;13731;51.166;4.474;2023-07-20T14:15:00;23.60;1.00
25933;DHT22;13731;51.166;4.474;2023-07-20T14:17:26;23.70;1.00
25933;DHT22;13731;51.166;4.474;2023-07-20T14:19:52;23.30;1.00
25933;DHT22;13731;51.166;4.474;2023-07-20T14:22:18;23.50;1.00
25933;DHT22;13731;51.166;4.474;2023-07-20T14:24:44;23.40;1.00
25933;DHT22;13731;51.166;4.474;2023-07-20T14:27:10;23.30;1.00
25933;DHT22;13731;51.166;4.474;2023-07-20T14:29:36;23.20;1.00
25933;DHT22;13731;51.166;4.474;2023-07-20T14:32:02;23.30;1.00
25933;DHT22;13731;51.166;4.474;2023-07-20T14:34:29;23.20;1.00
25933;DHT22;13731;51.166;4.474;2023-07-20T14:36:55;23.20;1.00
25933;DHT22;13731;51.166;4.474;2023-07-20T14:39:21;23.30;1.00
25933;DHT22;13731;51.166;4.474;2023-07-20T14:41:47;23.30;1.00
25933;DHT22;13731;51.166;4.474;2023-07-20T14:44:13;23.40;1.00
25933;DHT22;13731;51.166;4.474;2023-07-20T14:46:38;23.60;1.00
25933;DHT22;13731;51.166;4.474;2023-07-20T14:49:04;23.60;1.00
25933;DHT22;13731;51.166;4.474;2023-07-20T14:51:29;23.80;1.00
25933;DHT22;13731;51.166;4.474;2023-07-20T14:53:58;24.00;1.00
25933;DHT22;13731;51.166;4.474;2023-07-20T14:56:24;24.30;1.00
25933;DHT22;13731;51.166;4.474;2023-07-20T14:58:50;24.20;1.00
25933;DHT22;13731;51.166;4.474;2023-07-20T15:01:15;24.10;1.00
25933;DHT22;13731;51.166;4.474;2023-07-20T15:03:41;24.30;1.00
25933;DHT22;13731;51.166;4.474;2023-07-20T15:06:10;24.40;1.00
25933;DHT22;13731;51.166;4.474;2023-07-20T15:08:36;24.30;1.00
25933;DHT22;13731;51.166;4.474;2023-07-20T15:11:01;24.30;1.00
25933;DHT22;13731;51.166;4.474;2023-07-20T15:13:27;24.00;1.00
25933;DHT22;13731;51.166;4.474;2023-07-20T15:15:53;24.20;1.00
25933;DHT22;13731;51.166;4.474;2023-07-20T15:18:18;24.20;1.00
25933;DHT22;13731;51.166;4.474;2023-07-20T15:20:44;23.90;1.00
25933;DHT22;13731;51.166;4.474;2023-07-20T15:23:10;23.70;1.00
25933;DHT22;13731;51.166;4.474;2023-07-20T15:25:36;23.50;1.00
25933;DHT22;13731;51.166;4.474;2023-07-20T15:28:01;23.50;1.00
25933;DHT22;13731;51.166;4.474;2023-07-20T15:30:27;23.60;1.00
25933;DHT22;13731;51.166;4.474;2023-07-20T15:32:54;23.50;1.00
25933;DHT22;13731;51.166;4.474;2023-07-20T15:35:23;23.40;1.00
25933;DHT22;13731;51.166;4.474;2023-07-20T15:37:48;23.50;1.00
25933;DHT22;13731;51.166;4.474;2023-07-20T15:40:14;23.30;1.00
25933;DHT22;13731;51.166;4.474;2023-07-20T15:42:40;23.30;1.00
25933;DHT22;13731;51.166;4.474;2023-07-20T15:45:06;23.00;1.00
25933;DHT22;13731;51.166;4.474;2023-07-20T15:47:32;22.80;1.00
25933;DHT22;13731;51.166;4.474;2023-07-20T15:49:57;22.60;1.00
25933;DHT22;13731;51.166;4.474;2023-07-20T15:52:23;22.60;1.00
25933;DHT22;13731;51.166;4.474;2023-07-20T15:54:49;22.30;1.00
25933;DHT22;13731;51.166;4.474;2023-07-20T15:57:15;22.00;1.00